createdAt,value
2018-04-17T00:00:56.404Z,98.10
2018-04-17T00:05:57.379Z,98.00
2018-04-17T00:10:58.349Z,97.50
2018-04-17T00:15:59.338Z,97.70
2018-04-17T00:21:00.321Z,97.90
2018-04-17T00:26:01.301Z,98.80
2018-04-17T00:31:02.293Z,99.90
2018-04-17T00:36:04.033Z,99.90
2018-04-17T00:41:05.027Z,99.90
2018-04-17T00:46:06.754Z,99.90
2018-04-17T00:51:07.748Z,99.90
2018-04-17T00:56:09.470Z,99.90
2018-04-17T01:01:10.462Z,99.90
2018-04-17T01:06:11.447Z,99.90
2018-04-17T01:11:13.162Z,99.90
2018-04-17T01:16:14.148Z,99.90
2018-04-17T01:21:15.138Z,99.90
2018-04-17T01:26:16.886Z,99.90
2018-04-17T01:31:17.873Z,99.90
2018-04-17T01:36:18.865Z,99.90
2018-04-17T01:41:19.830Z,99.90
2018-04-17T01:46:20.818Z,99.90
2018-04-17T01:51:21.797Z,99.90
2018-04-17T01:56:23.518Z,99.90
2018-04-17T02:01:24.495Z,99.90
2018-04-17T02:06:25.502Z,99.90
2018-04-17T02:11:26.507Z,99.90
2018-04-17T02:16:27.483Z,99.90
2018-04-17T02:21:29.217Z,99.90
2018-04-17T02:26:30.196Z,99.90
2018-04-17T02:31:31.193Z,99.90
2018-04-17T02:36:32.932Z,99.90
2018-04-17T02:41:33.947Z,99.90
2018-04-17T02:46:34.956Z,99.90
2018-04-17T02:51:35.950Z,99.90
2018-04-17T02:56:36.961Z,99.90
2018-04-17T03:01:37.950Z,99.90
2018-04-17T03:06:39.698Z,99.90
2018-04-17T03:11:40.686Z,99.90
2018-04-17T03:16:42.419Z,99.90
2018-04-17T03:21:43.413Z,99.90
2018-04-17T03:26:45.160Z,99.90
2018-04-17T03:31:46.157Z,99.90
2018-04-17T03:36:47.163Z,99.90
2018-04-17T03:41:48.142Z,99.90
2018-04-17T03:46:49.134Z,99.90
2018-04-17T03:51:50.133Z,99.90
2018-04-17T03:56:51.121Z,99.90
2018-04-17T04:01:53.001Z,99.90
2018-04-17T04:06:54.735Z,99.90
2018-04-17T04:11:55.734Z,99.90
2018-04-17T04:17:09.888Z,99.90
2018-04-17T04:22:23.329Z,99.90
2018-04-17T04:27:24.339Z,99.90
2018-04-17T04:32:25.341Z,99.90
2018-04-17T04:37:26.339Z,99.90
2018-04-17T04:42:27.350Z,99.90
2018-04-17T04:47:28.418Z,99.90
2018-04-17T04:52:29.421Z,99.90
2018-04-17T04:57:30.438Z,99.90
2018-04-17T05:02:31.437Z,99.90
2018-04-17T05:07:32.453Z,99.90
2018-04-17T05:12:33.445Z,99.90
2018-04-17T05:17:35.169Z,99.90
2018-04-17T05:22:36.328Z,99.90
2018-04-17T05:27:37.350Z,99.90
2018-04-17T05:32:38.340Z,99.90
2018-04-17T05:37:39.375Z,99.90
2018-04-17T05:42:40.365Z,99.90
2018-04-17T05:47:41.349Z,99.90
2018-04-17T05:52:43.121Z,99.90
2018-04-17T05:57:44.111Z,99.90
2018-04-17T06:02:45.086Z,99.90
2018-04-17T06:07:46.110Z,99.90
2018-04-17T06:12:47.862Z,99.90
2018-04-17T06:17:48.851Z,99.90
2018-04-17T06:22:49.861Z,99.90
2018-04-17T06:27:50.857Z,99.50
2018-04-17T06:32:51.862Z,97.20
2018-04-17T06:37:52.844Z,94.60
2018-04-17T06:42:53.829Z,89.50
2018-04-17T06:47:54.853Z,86.60
2018-04-17T06:52:55.894Z,83.10
2018-04-17T06:57:56.942Z,82.70
2018-04-17T07:02:58.653Z,81.90
2018-04-17T07:08:00.421Z,77.60
2018-04-17T07:13:01.426Z,77.50
2018-04-17T07:18:02.410Z,76.60
2018-04-17T07:23:03.414Z,76.30
2018-04-17T07:28:05.180Z,71.40
2018-04-17T07:33:06.167Z,71.30
2018-04-17T07:38:07.171Z,65.70
2018-04-17T07:43:08.220Z,65.80
2018-04-17T07:48:23.039Z,63.10
2018-04-17T07:53:24.041Z,63.00
2018-04-17T07:58:25.042Z,59.60
2018-04-17T08:03:26.054Z,63.00
2018-04-17T08:08:27.021Z,59.80
2018-04-17T08:13:28.018Z,57.40
2018-04-17T08:18:29.047Z,58.00
2018-04-17T08:23:30.030Z,54.80
2018-04-17T08:28:31.005Z,53.50
2018-04-17T08:33:32.727Z,48.70
2018-04-17T08:38:33.750Z,48.60
2018-04-17T08:43:34.750Z,52.30
2018-04-17T08:48:35.745Z,51.60
2018-04-17T08:53:36.746Z,53.70
2018-04-17T08:58:37.746Z,51.20
2018-04-17T09:03:38.726Z,49.20
2018-04-17T09:08:40.449Z,48.10
2018-04-17T09:13:41.461Z,48.00
2018-04-17T09:18:43.193Z,47.00
2018-04-17T09:23:44.194Z,47.70
2018-04-17T09:28:45.927Z,48.00
2018-04-17T09:33:46.897Z,47.90
2018-04-17T09:38:47.882Z,46.60
2018-04-17T09:43:49.610Z,45.40
2018-04-17T09:48:50.587Z,45.40
2018-04-17T09:53:51.561Z,45.60
2018-04-17T09:58:53.287Z,44.50
2018-04-17T10:03:54.274Z,44.50
2018-04-17T10:08:55.348Z,47.90
2018-04-17T10:13:56.256Z,51.40
2018-04-17T10:18:57.246Z,48.70
2018-04-17T10:23:58.242Z,48.80
2018-04-17T10:28:59.260Z,45.50
2018-04-17T10:34:00.234Z,43.80
2018-04-17T10:39:01.966Z,40.40
2018-04-17T10:44:02.945Z,40.40
2018-04-17T10:49:03.937Z,42.00
2018-04-17T10:54:05.675Z,39.60
2018-04-17T10:59:06.742Z,39.50
2018-04-17T11:04:07.791Z,44.30
2018-04-17T11:09:09.486Z,43.00
2018-04-17T11:14:10.469Z,42.80
2018-04-17T11:19:11.478Z,43.70
2018-04-17T11:24:12.473Z,42.20
2018-04-17T11:29:14.224Z,42.60
2018-04-17T11:34:15.246Z,42.60
2018-04-17T11:39:16.249Z,39.10
2018-04-17T11:44:17.991Z,40.90
2018-04-17T11:49:19.042Z,41.00
2018-04-17T11:54:20.042Z,40.70
2018-04-17T11:59:21.844Z,39.50
2018-04-17T12:04:22.840Z,39.00
2018-04-17T12:09:23.858Z,40.50
2018-04-17T12:14:24.850Z,39.90
2018-04-17T12:19:25.859Z,40.00
2018-04-17T12:24:27.585Z,39.00
2018-04-17T12:29:28.578Z,39.00
2018-04-17T12:34:29.627Z,39.00
2018-04-17T12:39:30.636Z,38.10
2018-04-17T12:44:31.574Z,37.80
2018-04-17T12:49:32.615Z,39.90
2018-04-17T12:54:34.345Z,39.70
2018-04-17T12:59:35.354Z,39.70
2018-04-17T13:04:37.118Z,38.60
2018-04-17T13:09:38.854Z,38.10
2018-04-17T13:14:39.858Z,38.00
2018-04-17T13:19:41.599Z,39.40
2018-04-17T13:24:42.634Z,39.40
2018-04-17T13:29:43.625Z,38.80
2018-04-17T13:34:44.650Z,40.00
2018-04-17T13:39:45.682Z,38.40
2018-04-17T13:44:46.662Z,40.10
2018-04-17T13:49:47.675Z,39.90
2018-04-17T13:54:49.421Z,38.80
2018-04-17T13:59:50.405Z,38.80
2018-04-17T14:04:52.150Z,38.50
2018-04-17T14:09:53.192Z,38.60
2018-04-17T14:14:54.874Z,38.10
2018-04-17T14:19:55.869Z,38.20
2018-04-17T14:24:56.877Z,38.10
2018-04-17T14:29:57.910Z,38.10
2018-04-17T14:34:58.901Z,40.00
2018-04-17T14:39:59.919Z,37.70
2018-04-17T14:45:01.681Z,39.70
2018-04-17T14:50:03.449Z,38.00
2018-04-17T14:55:05.186Z,37.40
2018-04-17T15:00:06.191Z,37.30
2018-04-17T15:05:07.941Z,39.10
2018-04-17T15:10:08.954Z,39.10
2018-04-17T15:15:09.993Z,36.10
2018-04-17T15:20:11.734Z,38.80
2018-04-17T15:25:12.720Z,38.80
2018-04-17T15:30:14.461Z,39.70
2018-04-17T15:35:15.450Z,39.80
2018-04-17T15:40:17.203Z,38.80
2018-04-17T15:45:18.218Z,38.70
2018-04-17T15:50:19.208Z,39.10
2018-04-17T15:55:20.218Z,40.50
2018-04-17T16:00:21.201Z,40.30
2018-04-17T16:05:22.316Z,39.90
2018-04-17T16:10:24.055Z,40.00
2018-04-17T16:15:25.052Z,39.80
2018-04-17T16:20:26.049Z,40.90
2018-04-17T16:25:27.050Z,40.40
2018-04-17T16:30:28.040Z,40.20
2018-04-17T16:35:29.009Z,41.60
2018-04-17T16:40:30.041Z,40.00
2018-04-17T16:45:31.028Z,39.90
2018-04-17T16:50:32.014Z,43.10
2018-04-17T16:55:33.037Z,41.50
2018-04-17T17:00:34.054Z,40.80
2018-04-17T17:05:35.054Z,41.00
2018-04-17T17:10:36.070Z,41.60
2018-04-17T17:15:37.062Z,42.50
2018-04-17T17:20:38.073Z,43.20
2018-04-17T17:25:39.075Z,42.50
2018-04-17T17:30:40.086Z,42.50
2018-04-17T17:35:41.110Z,42.50
2018-04-17T17:40:42.105Z,42.30
2018-04-17T17:45:43.226Z,43.40
2018-04-17T17:50:44.242Z,47.00
2018-04-17T17:55:46.001Z,46.70
2018-04-17T18:00:47.062Z,46.50
2018-04-17T18:05:48.086Z,45.40
2018-04-17T18:10:49.094Z,44.20
2018-04-17T18:15:50.849Z,43.50
2018-04-17T18:20:51.839Z,43.40
2018-04-17T18:25:52.850Z,44.90
2018-04-17T18:30:53.851Z,46.70
2018-04-17T18:35:55.576Z,49.70
2018-04-17T18:40:56.570Z,49.70
2018-04-17T18:45:58.319Z,51.80
2018-04-17T18:50:59.334Z,51.60
2018-04-17T18:56:00.365Z,51.50
2018-04-17T19:01:02.145Z,53.20
2018-04-17T19:06:03.897Z,53.70
2018-04-17T19:11:04.918Z,53.70
2018-04-17T19:16:06.720Z,54.90
2018-04-17T19:21:07.827Z,54.80
2018-04-17T19:26:09.581Z,55.40
2018-04-17T19:31:11.386Z,55.70
2018-04-17T19:36:12.444Z,55.60
2018-04-17T19:41:13.554Z,55.60
2018-04-17T19:46:14.550Z,55.70
2018-04-17T19:51:16.296Z,56.10
2018-04-17T19:56:17.286Z,56.10
2018-04-17T20:01:18.301Z,56.20
2018-04-17T20:06:19.298Z,56.40
2018-04-17T20:11:20.303Z,56.30
2018-04-17T20:16:21.421Z,56.40
2018-04-17T20:21:22.478Z,56.30
2018-04-17T20:26:23.669Z,56.30
2018-04-17T20:31:24.832Z,56.70
2018-04-17T20:36:26.013Z,57.20
2018-04-17T20:41:27.014Z,57.10
2018-04-17T20:46:28.026Z,57.20
2018-04-17T20:51:29.075Z,57.40
2018-04-17T20:56:30.043Z,57.00
2018-04-17T21:01:31.037Z,56.50
2018-04-17T21:06:32.031Z,56.80
2018-04-17T21:11:33.048Z,55.90
2018-04-17T21:16:34.056Z,55.60
2018-04-17T21:21:35.070Z,55.00
2018-04-17T21:26:36.072Z,55.00
2018-04-17T21:31:37.102Z,54.60
2018-04-17T21:36:38.871Z,54.60
2018-04-17T21:41:40.638Z,54.70
2018-04-17T21:46:41.644Z,54.70
2018-04-17T21:51:42.654Z,55.60
2018-04-17T21:56:43.638Z,55.00
2018-04-17T22:01:45.402Z,55.30
2018-04-17T22:06:47.162Z,55.50
2018-04-17T22:11:48.170Z,55.50
2018-04-17T22:16:49.169Z,55.60
2018-04-17T22:21:50.177Z,56.20
2018-04-17T22:26:51.193Z,56.60
2018-04-17T22:31:52.179Z,57.30
2018-04-17T22:36:53.213Z,58.10
2018-04-17T22:41:54.202Z,58.60
2018-04-17T22:46:55.198Z,58.90
2018-04-17T22:51:56.201Z,60.30
2018-04-17T22:56:57.932Z,72.80
2018-04-17T23:01:58.930Z,72.80
2018-04-17T23:07:00.661Z,73.10
2018-04-17T23:12:01.692Z,72.90
2018-04-17T23:17:02.698Z,75.30
2018-04-17T23:22:03.682Z,76.60
2018-04-17T23:27:05.440Z,84.10
2018-04-17T23:32:06.442Z,84.10
2018-04-17T23:37:07.482Z,86.30
2018-04-17T23:42:09.214Z,94.40
2018-04-17T23:47:10.218Z,94.50
2018-04-17T23:52:11.210Z,94.00
2018-04-17T23:57:12.201Z,99.40
